sensor_id;sensor_type;location;lat;lon;timestamp;pressure;altitude;pressure_sealevel;temperature
20058;BMP180;10189;49.546;7.906;2023-05-10T00:01:32;97471.00;;;14.40
20058;BMP180;10189;49.546;7.906;2023-05-10T00:03:58;97477.00;;;14.60
20058;BMP180;10189;49.546;7.906;2023-05-10T00:06:24;97479.00;;;14.40
20058;BMP180;10189;49.546;7.906;2023-05-10T00:08:50;97469.00;;;14.40
20058;BMP180;10189;49.546;7.906;2023-05-10T00:11:15;97482.00;;;14.40
20058;BMP180;10189;49.546;7.906;2023-05-10T00:13:41;97485.00;;;14.50
20058;BMP180;10189;49.546;7.906;2023-05-10T00:16:07;97488.00;;;14.50
20058;BMP180;10189;49.546;7.906;2023-05-10T00:18:33;97486.00;;;14.40
20058;BMP180;10189;49.546;7.906;2023-05-10T00:20:59;97486.00;;;14.40
20058;BMP180;10189;49.546;7.906;2023-05-10T00:23:25;97479.00;;;14.40
20058;BMP180;10189;49.546;7.906;2023-05-10T00:25:51;97479.00;;;14.60
20058;BMP180;10189;49.546;7.906;2023-05-10T00:28:17;97476.00;;;14.50
20058;BMP180;10189;49.546;7.906;2023-05-10T00:30:42;97481.00;;;14.50
20058;BMP180;10189;49.546;7.906;2023-05-10T00:33:08;97477.00;;;14.50
20058;BMP180;10189;49.546;7.906;2023-05-10T00:35:34;97473.00;;;14.50
20058;BMP180;10189;49.546;7.906;2023-05-10T00:38:00;97480.00;;;14.50
20058;BMP180;10189;49.546;7.906;2023-05-10T00:40:26;97473.00;;;14.50
20058;BMP180;10189;49.546;7.906;2023-05-10T00:42:57;97476.00;;;14.50
20058;BMP180;10189;49.546;7.906;2023-05-10T00:45:24;97469.00;;;14.40
20058;BMP180;10189;49.546;7.906;2023-05-10T00:47:51;97467.00;;;14.40
20058;BMP180;10189;49.546;7.906;2023-05-10T00:50:24;97471.00;;;14.30
20058;BMP180;10189;49.546;7.906;2023-05-10T00:52:50;97467.00;;;14.30
20058;BMP180;10189;49.546;7.906;2023-05-10T00:55:16;97473.00;;;14.30
20058;BMP180;10189;49.546;7.906;2023-05-10T00:57:43;97479.00;;;14.30
20058;BMP180;10189;49.546;7.906;2023-05-10T01:00:09;97471.00;;;14.30
20058;BMP180;10189;49.546;7.906;2023-05-10T01:02:36;97474.00;;;14.30
20058;BMP180;10189;49.546;7.906;2023-05-10T01:05:03;97475.00;;;14.30
20058;BMP180;10189;49.546;7.906;2023-05-10T01:07:29;97473.00;;;14.40
20058;BMP180;10189;49.546;7.906;2023-05-10T01:09:56;97481.00;;;14.40
20058;BMP180;10189;49.546;7.906;2023-05-10T01:12:22;97490.00;;;14.50
20058;BMP180;10189;49.546;7.906;2023-05-10T01:14:48;97482.00;;;14.50
20058;BMP180;10189;49.546;7.906;2023-05-10T01:17:15;97488.00;;;14.40
20058;BMP180;10189;49.546;7.906;2023-05-10T01:19:42;97483.00;;;14.40
20058;BMP180;10189;49.546;7.906;2023-05-10T01:36:32;97485.00;;;14.50
20058;BMP180;10189;49.546;7.906;2023-05-10T01:39:24;97487.00;;;14.50
20058;BMP180;10189;49.546;7.906;2023-05-10T01:42:10;97479.00;;;14.50
20058;BMP180;10189;49.546;7.906;2023-05-10T01:50:03;97494.00;;;14.50
20058;BMP180;10189;49.546;7.906;2023-05-10T01:52:35;97496.00;;;14.50
20058;BMP180;10189;49.546;7.906;2023-05-10T01:55:07;97496.00;;;14.50
20058;BMP180;10189;49.546;7.906;2023-05-10T01:57:37;97495.00;;;14.50
20058;BMP180;10189;49.546;7.906;2023-05-10T02:00:08;97489.00;;;14.50
20058;BMP180;10189;49.546;7.906;2023-05-10T02:02:46;97482.00;;;14.50
20058;BMP180;10189;49.546;7.906;2023-05-10T02:05:16;97497.00;;;14.50
20058;BMP180;10189;49.546;7.906;2023-05-10T02:07:43;97490.00;;;14.50
20058;BMP180;10189;49.546;7.906;2023-05-10T02:10:13;97493.00;;;14.40
20058;BMP180;10189;49.546;7.906;2023-05-10T02:12:43;97499.00;;;14.40
20058;BMP180;10189;49.546;7.906;2023-05-10T02:15:14;97498.00;;;14.40
20058;BMP180;10189;49.546;7.906;2023-05-10T02:17:43;97500.00;;;14.20
20058;BMP180;10189;49.546;7.906;2023-05-10T02:20:10;97513.00;;;14.10
20058;BMP180;10189;49.546;7.906;2023-05-10T02:22:38;97514.00;;;14.10
20058;BMP180;10189;49.546;7.906;2023-05-10T02:25:06;97516.00;;;14.00
20058;BMP180;10189;49.546;7.906;2023-05-10T02:27:33;97518.00;;;14.00
20058;BMP180;10189;49.546;7.906;2023-05-10T02:30:01;97522.00;;;13.90
20058;BMP180;10189;49.546;7.906;2023-05-10T02:32:28;97530.00;;;13.80
20058;BMP180;10189;49.546;7.906;2023-05-10T02:34:57;97532.00;;;13.80
20058;BMP180;10189;49.546;7.906;2023-05-10T02:37:25;97529.00;;;13.80
20058;BMP180;10189;49.546;7.906;2023-05-10T02:39:54;97532.00;;;13.80
20058;BMP180;10189;49.546;7.906;2023-05-10T02:42:26;97537.00;;;13.80
20058;BMP180;10189;49.546;7.906;2023-05-10T02:45:01;97533.00;;;13.70
20058;BMP180;10189;49.546;7.906;2023-05-10T02:47:29;97535.00;;;13.70
20058;BMP180;10189;49.546;7.906;2023-05-10T02:49:55;97536.00;;;13.60
20058;BMP180;10189;49.546;7.906;2023-05-10T02:52:42;97538.00;;;13.60
20058;BMP180;10189;49.546;7.906;2023-05-10T02:55:14;97532.00;;;13.60
20058;BMP180;10189;49.546;7.906;2023-05-10T02:57:52;97540.00;;;13.70
20058;BMP180;10189;49.546;7.906;2023-05-10T03:00:20;97534.00;;;13.60
20058;BMP180;10189;49.546;7.906;2023-05-10T03:02:46;97545.00;;;13.60
20058;BMP180;10189;49.546;7.906;2023-05-10T03:05:13;97537.00;;;13.50
20058;BMP180;10189;49.546;7.906;2023-05-10T03:07:39;97536.00;;;13.50
20058;BMP180;10189;49.546;7.906;2023-05-10T03:10:05;97548.00;;;13.50
20058;BMP180;10189;49.546;7.906;2023-05-10T03:16:19;97561.00;;;13.60
20058;BMP180;10189;49.546;7.906;2023-05-10T03:19:02;97553.00;;;13.60
20058;BMP180;10189;49.546;7.906;2023-05-10T03:21:32;97545.00;;;13.70
20058;BMP180;10189;49.546;7.906;2023-05-10T03:24:07;97554.00;;;13.60
20058;BMP180;10189;49.546;7.906;2023-05-10T03:26:36;97545.00;;;13.50
20058;BMP180;10189;49.546;7.906;2023-05-10T03:29:10;97558.00;;;13.50
20058;BMP180;10189;49.546;7.906;2023-05-10T03:31:38;97546.00;;;13.50
20058;BMP180;10189;49.546;7.906;2023-05-10T03:34:04;97545.00;;;13.50
20058;BMP180;10189;49.546;7.906;2023-05-10T03:36:31;97545.00;;;13.50
20058;BMP180;10189;49.546;7.906;2023-05-10T03:38:58;97546.00;;;13.50
20058;BMP180;10189;49.546;7.906;2023-05-10T03:41:25;97542.00;;;13.40
20058;BMP180;10189;49.546;7.906;2023-05-10T03:43:51;97560.00;;;13.40
20058;BMP180;10189;49.546;7.906;2023-05-10T03:46:17;97550.00;;;13.40
20058;BMP180;10189;49.546;7.906;2023-05-10T03:48:44;97554.00;;;13.50
20058;BMP180;10189;49.546;7.906;2023-05-10T03:51:10;97567.00;;;13.60
20058;BMP180;10189;49.546;7.906;2023-05-10T03:53:36;97558.00;;;13.60
20058;BMP180;10189;49.546;7.906;2023-05-10T03:56:02;97553.00;;;13.70
20058;BMP180;10189;49.546;7.906;2023-05-10T03:58:28;97556.00;;;13.70
20058;BMP180;10189;49.546;7.906;2023-05-10T04:00:54;97564.00;;;13.80
20058;BMP180;10189;49.546;7.906;2023-05-10T04:03:20;97557.00;;;13.80
20058;BMP180;10189;49.546;7.906;2023-05-10T04:05:46;97551.00;;;13.80
20058;BMP180;10189;49.546;7.906;2023-05-10T04:08:12;97548.00;;;13.90
20058;BMP180;10189;49.546;7.906;2023-05-10T04:10:38;97557.00;;;14.00
20058;BMP180;10189;49.546;7.906;2023-05-10T04:13:04;97560.00;;;14.00
20058;BMP180;10189;49.546;7.906;2023-05-10T04:15:30;97561.00;;;14.00
20058;BMP180;10189;49.546;7.906;2023-05-10T04:17:56;97556.00;;;14.20
20058;BMP180;10189;49.546;7.906;2023-05-10T04:20:22;97556.00;;;14.10
20058;BMP180;10189;49.546;7.906;2023-05-10T04:22:47;97561.00;;;14.20
20058;BMP180;10189;49.546;7.906;2023-05-10T04:25:13;97547.00;;;14.30
20058;BMP180;10189;49.546;7.906;2023-05-10T04:27:39;97561.00;;;14.30
20058;BMP180;10189;49.546;7.906;2023-05-10T04:30:07;97568.00;;;14.30
20058;BMP180;10189;49.546;7.906;2023-05-10T04:32:33;97566.00;;;14.40
20058;BMP180;10189;49.546;7.906;2023-05-10T04:34:59;97559.00;;;14.40
20058;BMP180;10189;49.546;7.906;2023-05-10T04:37:25;97555.00;;;14.40
20058;BMP180;10189;49.546;7.906;2023-05-10T04:39:50;97552.00;;;14.30
20058;BMP180;10189;49.546;7.906;2023-05-10T04:42:16;97559.00;;;14.30
20058;BMP180;10189;49.546;7.906;2023-05-10T04:44:42;97559.00;;;14.20
20058;BMP180;10189;49.546;7.906;2023-05-10T04:47:09;97564.00;;;14.30
20058;BMP180;10189;49.546;7.906;2023-05-10T04:49:35;97568.00;;;14.40
20058;BMP180;10189;49.546;7.906;2023-05-10T04:52:00;97571.00;;;14.50
20058;BMP180;10189;49.546;7.906;2023-05-10T04:54:26;97563.00;;;14.60
20058;BMP180;10189;49.546;7.906;2023-05-10T04:56:52;97562.00;;;14.70
20058;BMP180;10189;49.546;7.906;2023-05-10T04:59:18;97565.00;;;14.80
20058;BMP180;10189;49.546;7.906;2023-05-10T05:01:44;97571.00;;;15.00
20058;BMP180;10189;49.546;7.906;2023-05-10T05:04:10;97573.00;;;15.00
20058;BMP180;10189;49.546;7.906;2023-05-10T05:06:36;97578.00;;;14.90
20058;BMP180;10189;49.546;7.906;2023-05-10T05:09:02;97579.00;;;15.20
20058;BMP180;10189;49.546;7.906;2023-05-10T05:11:28;97578.00;;;15.10
20058;BMP180;10189;49.546;7.906;2023-05-10T05:13:54;97591.00;;;15.10
20058;BMP180;10189;49.546;7.906;2023-05-10T05:16:20;97594.00;;;15.20
20058;BMP180;10189;49.546;7.906;2023-05-10T05:18:45;97589.00;;;15.20
20058;BMP180;10189;49.546;7.906;2023-05-10T05:21:19;97587.00;;;15.10
20058;BMP180;10189;49.546;7.906;2023-05-10T05:23:46;97601.00;;;15.20
20058;BMP180;10189;49.546;7.906;2023-05-10T05:26:12;97589.00;;;15.40
20058;BMP180;10189;49.546;7.906;2023-05-10T05:28:38;97587.00;;;15.50
20058;BMP180;10189;49.546;7.906;2023-05-10T05:31:05;97590.00;;;15.40
20058;BMP180;10189;49.546;7.906;2023-05-10T05:33:31;97594.00;;;15.50
20058;BMP180;10189;49.546;7.906;2023-05-10T05:36:00;97586.00;;;15.40
20058;BMP180;10189;49.546;7.906;2023-05-10T05:38:26;97591.00;;;15.30
20058;BMP180;10189;49.546;7.906;2023-05-10T05:40:52;97590.00;;;15.40
20058;BMP180;10189;49.546;7.906;2023-05-10T05:43:18;97584.00;;;15.40
20058;BMP180;10189;49.546;7.906;2023-05-10T05:45:44;97594.00;;;15.50
20058;BMP180;10189;49.546;7.906;2023-05-10T05:48:10;97592.00;;;15.60
20058;BMP180;10189;49.546;7.906;2023-05-10T05:50:35;97587.00;;;15.50
20058;BMP180;10189;49.546;7.906;2023-05-10T05:53:01;97589.00;;;15.60
20058;BMP180;10189;49.546;7.906;2023-05-10T05:55:27;97583.00;;;16.00
20058;BMP180;10189;49.546;7.906;2023-05-10T05:57:55;97586.00;;;16.20
20058;BMP180;10189;49.546;7.906;2023-05-10T06:00:21;97594.00;;;16.00
20058;BMP180;10189;49.546;7.906;2023-05-10T06:02:47;97591.00;;;15.80
20058;BMP180;10189;49.546;7.906;2023-05-10T06:05:13;97588.00;;;15.80
20058;BMP180;10189;49.546;7.906;2023-05-10T06:07:40;97580.00;;;16.00
20058;BMP180;10189;49.546;7.906;2023-05-10T06:10:08;97584.00;;;16.30
20058;BMP180;10189;49.546;7.906;2023-05-10T06:12:35;97580.00;;;16.30
20058;BMP180;10189;49.546;7.906;2023-05-10T06:15:01;97581.00;;;16.70
20058;BMP180;10189;49.546;7.906;2023-05-10T06:17:26;97582.00;;;16.90
20058;BMP180;10189;49.546;7.906;2023-05-10T06:19:53;97567.00;;;16.90
20058;BMP180;10189;49.546;7.906;2023-05-10T06:22:18;97581.00;;;17.20
20058;BMP180;10189;49.546;7.906;2023-05-10T06:24:44;97578.00;;;17.20
20058;BMP180;10189;49.546;7.906;2023-05-10T06:27:10;97576.00;;;17.30
20058;BMP180;10189;49.546;7.906;2023-05-10T06:29:36;97579.00;;;17.20
20058;BMP180;10189;49.546;7.906;2023-05-10T06:32:02;97579.00;;;17.20
20058;BMP180;10189;49.546;7.906;2023-05-10T06:34:28;97585.00;;;16.90
20058;BMP180;10189;49.546;7.906;2023-05-10T06:36:54;97591.00;;;16.70
20058;BMP180;10189;49.546;7.906;2023-05-10T06:39:19;97600.00;;;16.80
20058;BMP180;10189;49.546;7.906;2023-05-10T06:41:45;97618.00;;;16.90
20058;BMP180;10189;49.546;7.906;2023-05-10T06:44:11;97603.00;;;17.20
20058;BMP180;10189;49.546;7.906;2023-05-10T06:46:38;97605.00;;;17.80
20058;BMP180;10189;49.546;7.906;2023-05-10T06:49:04;97610.00;;;17.60
20058;BMP180;10189;49.546;7.906;2023-05-10T06:51:30;97619.00;;;16.90
20058;BMP180;10189;49.546;7.906;2023-05-10T06:53:56;97620.00;;;17.00
20058;BMP180;10189;49.546;7.906;2023-05-10T06:56:22;97616.00;;;16.90
20058;BMP180;10189;49.546;7.906;2023-05-10T06:58:48;97618.00;;;16.80
20058;BMP180;10189;49.546;7.906;2023-05-10T07:01:14;97629.00;;;17.00
20058;BMP180;10189;49.546;7.906;2023-05-10T07:03:40;97634.00;;;17.20
20058;BMP180;10189;49.546;7.906;2023-05-10T07:06:06;97624.00;;;16.90
20058;BMP180;10189;49.546;7.906;2023-05-10T07:08:34;97639.00;;;17.10
20058;BMP180;10189;49.546;7.906;2023-05-10T07:11:05;97629.00;;;17.30
20058;BMP180;10189;49.546;7.906;2023-05-10T07:13:33;97625.00;;;17.20
20058;BMP180;10189;49.546;7.906;2023-05-10T07:16:00;97626.00;;;17.50
20058;BMP180;10189;49.546;7.906;2023-05-10T07:18:27;97626.00;;;17.80
20058;BMP180;10189;49.546;7.906;2023-05-10T07:20:53;97625.00;;;17.90
20058;BMP180;10189;49.546;7.906;2023-05-10T07:23:19;97632.00;;;17.80
20058;BMP180;10189;49.546;7.906;2023-05-10T07:25:50;97627.00;;;17.80
20058;BMP180;10189;49.546;7.906;2023-05-10T07:28:18;97627.00;;;17.80
20058;BMP180;10189;49.546;7.906;2023-05-10T07:30:44;97635.00;;;17.70
20058;BMP180;10189;49.546;7.906;2023-05-10T07:33:13;97637.00;;;17.60
20058;BMP180;10189;49.546;7.906;2023-05-10T07:35:39;97640.00;;;17.60
20058;BMP180;10189;49.546;7.906;2023-05-10T07:38:06;97642.00;;;17.90
20058;BMP180;10189;49.546;7.906;2023-05-10T07:40:32;97638.00;;;18.00
20058;BMP180;10189;49.546;7.906;2023-05-10T07:42:58;97644.00;;;17.70
20058;BMP180;10189;49.546;7.906;2023-05-10T07:45:26;97628.00;;;18.10
20058;BMP180;10189;49.546;7.906;2023-05-10T07:47:52;97638.00;;;18.50
20058;BMP180;10189;49.546;7.906;2023-05-10T07:50:18;97642.00;;;18.30
20058;BMP180;10189;49.546;7.906;2023-05-10T07:52:44;97645.00;;;17.90
20058;BMP180;10189;49.546;7.906;2023-05-10T07:55:10;97662.00;;;17.70
20058;BMP180;10189;49.546;7.906;2023-05-10T07:57:36;97649.00;;;17.30
20058;BMP180;10189;49.546;7.906;2023-05-10T08:00:02;97656.00;;;17.70
20058;BMP180;10189;49.546;7.906;2023-05-10T08:02:38;97651.00;;;18.20
20058;BMP180;10189;49.546;7.906;2023-05-10T08:05:05;97662.00;;;17.90
20058;BMP180;10189;49.546;7.906;2023-05-10T08:07:31;97655.00;;;17.60
20058;BMP180;10189;49.546;7.906;2023-05-10T08:09:57;97657.00;;;17.20
20058;BMP180;10189;49.546;7.906;2023-05-10T08:12:23;97661.00;;;17.60
20058;BMP180;10189;49.546;7.906;2023-05-10T08:14:49;97669.00;;;17.20
20058;BMP180;10189;49.546;7.906;2023-05-10T08:17:15;97669.00;;;17.20
20058;BMP180;10189;49.546;7.906;2023-05-10T08:19:41;97679.00;;;17.40
20058;BMP180;10189;49.546;7.906;2023-05-10T08:22:07;97672.00;;;17.30
20058;BMP180;10189;49.546;7.906;2023-05-10T08:24:33;97683.00;;;17.40
20058;BMP180;10189;49.546;7.906;2023-05-10T08:27:05;97681.00;;;17.10
20058;BMP180;10189;49.546;7.906;2023-05-10T08:29:31;97672.00;;;17.40
20058;BMP180;10189;49.546;7.906;2023-05-10T08:31:57;97674.00;;;17.60
20058;BMP180;10189;49.546;7.906;2023-05-10T08:34:24;97677.00;;;18.20
20058;BMP180;10189;49.546;7.906;2023-05-10T08:36:50;97680.00;;;18.20
20058;BMP180;10189;49.546;7.906;2023-05-10T08:39:16;97688.00;;;17.60
20058;BMP180;10189;49.546;7.906;2023-05-10T08:41:45;97694.00;;;17.10
20058;BMP180;10189;49.546;7.906;2023-05-10T08:44:12;97702.00;;;17.30
20058;BMP180;10189;49.546;7.906;2023-05-10T08:46:41;97709.00;;;17.40
20058;BMP180;10189;49.546;7.906;2023-05-10T08:49:16;97706.00;;;17.20
20058;BMP180;10189;49.546;7.906;2023-05-10T08:51:51;97707.00;;;17.10
20058;BMP180;10189;49.546;7.906;2023-05-10T08:54:22;97720.00;;;17.30
20058;BMP180;10189;49.546;7.906;2023-05-10T08:56:48;97715.00;;;17.50
20058;BMP180;10189;49.546;7.906;2023-05-10T08:59:14;97718.00;;;17.40
20058;BMP180;10189;49.546;7.906;2023-05-10T09:01:44;97719.00;;;17.50
20058;BMP180;10189;49.546;7.906;2023-05-10T09:04:11;97727.00;;;16.90
20058;BMP180;10189;49.546;7.906;2023-05-10T09:06:38;97739.00;;;17.00
20058;BMP180;10189;49.546;7.906;2023-05-10T09:09:04;97745.00;;;16.60
20058;BMP180;10189;49.546;7.906;2023-05-10T09:11:30;97730.00;;;16.60
20058;BMP180;10189;49.546;7.906;2023-05-10T09:13:56;97744.00;;;16.70
20058;BMP180;10189;49.546;7.906;2023-05-10T09:16:23;97751.00;;;16.80
20058;BMP180;10189;49.546;7.906;2023-05-10T09:18:49;97751.00;;;17.00
20058;BMP180;10189;49.546;7.906;2023-05-10T09:21:15;97756.00;;;16.90
20058;BMP180;10189;49.546;7.906;2023-05-10T09:23:45;97753.00;;;16.90
20058;BMP180;10189;49.546;7.906;2023-05-10T09:26:12;97753.00;;;16.70
20058;BMP180;10189;49.546;7.906;2023-05-10T09:28:56;97756.00;;;16.80
20058;BMP180;10189;49.546;7.906;2023-05-10T09:31:23;97754.00;;;17.10
20058;BMP180;10189;49.546;7.906;2023-05-10T09:33:52;97755.00;;;17.20
20058;BMP180;10189;49.546;7.906;2023-05-10T09:36:18;97750.00;;;17.30
20058;BMP180;10189;49.546;7.906;2023-05-10T09:38:52;97757.00;;;17.60
20058;BMP180;10189;49.546;7.906;2023-05-10T09:41:25;97759.00;;;18.00
20058;BMP180;10189;49.546;7.906;2023-05-10T09:43:56;97746.00;;;18.60
20058;BMP180;10189;49.546;7.906;2023-05-10T09:46:22;97744.00;;;18.90
20058;BMP180;10189;49.546;7.906;2023-05-10T09:48:48;97746.00;;;18.60
20058;BMP180;10189;49.546;7.906;2023-05-10T09:51:22;97747.00;;;18.70
20058;BMP180;10189;49.546;7.906;2023-05-10T09:54:16;97744.00;;;18.60
20058;BMP180;10189;49.546;7.906;2023-05-10T09:56:43;97749.00;;;18.30
20058;BMP180;10189;49.546;7.906;2023-05-10T09:59:12;97748.00;;;18.00
20058;BMP180;10189;49.546;7.906;2023-05-10T10:01:39;97754.00;;;18.00
20058;BMP180;10189;49.546;7.906;2023-05-10T10:04:08;97746.00;;;17.90
20058;BMP180;10189;49.546;7.906;2023-05-10T10:06:39;97770.00;;;18.40
20058;BMP180;10189;49.546;7.906;2023-05-10T10:09:07;97751.00;;;18.60
20058;BMP180;10189;49.546;7.906;2023-05-10T10:11:38;97756.00;;;19.20
20058;BMP180;10189;49.546;7.906;2023-05-10T10:14:05;97757.00;;;19.20
20058;BMP180;10189;49.546;7.906;2023-05-10T10:16:32;97754.00;;;18.50
20058;BMP180;10189;49.546;7.906;2023-05-10T10:18:58;97755.00;;;18.50
20058;BMP180;10189;49.546;7.906;2023-05-10T10:21:24;97749.00;;;18.90
20058;BMP180;10189;49.546;7.906;2023-05-10T10:23:51;97756.00;;;19.50
20058;BMP180;10189;49.546;7.906;2023-05-10T10:26:20;97742.00;;;19.30
20058;BMP180;10189;49.546;7.906;2023-05-10T10:29:23;97746.00;;;18.30
20058;BMP180;10189;49.546;7.906;2023-05-10T10:31:57;97731.00;;;18.60
20058;BMP180;10189;49.546;7.906;2023-05-10T10:34:29;97735.00;;;18.70
20058;BMP180;10189;49.546;7.906;2023-05-10T10:36:57;97733.00;;;19.20
20058;BMP180;10189;49.546;7.906;2023-05-10T10:39:24;97729.00;;;20.20
20058;BMP180;10189;49.546;7.906;2023-05-10T10:41:56;97721.00;;;20.50
20058;BMP180;10189;49.546;7.906;2023-05-10T10:52:30;97716.00;;;20.70
20058;BMP180;10189;49.546;7.906;2023-05-10T10:55:18;97708.00;;;20.50
20058;BMP180;10189;49.546;7.906;2023-05-10T10:57:49;97716.00;;;20.80
20058;BMP180;10189;49.546;7.906;2023-05-10T11:00:31;97707.00;;;20.20
20058;BMP180;10189;49.546;7.906;2023-05-10T11:03:09;97711.00;;;20.60
20058;BMP180;10189;49.546;7.906;2023-05-10T11:08:15;97729.00;;;20.80
20058;BMP180;10189;49.546;7.906;2023-05-10T11:11:14;97735.00;;;20.30
20058;BMP180;10189;49.546;7.906;2023-05-10T11:13:47;97750.00;;;20.20
20058;BMP180;10189;49.546;7.906;2023-05-10T11:16:24;97755.00;;;19.50
20058;BMP180;10189;49.546;7.906;2023-05-10T11:19:06;97759.00;;;19.30
20058;BMP180;10189;49.546;7.906;2023-05-10T11:21:34;97750.00;;;19.50
20058;BMP180;10189;49.546;7.906;2023-05-10T11:24:15;97761.00;;;19.30
20058;BMP180;10189;49.546;7.906;2023-05-10T11:26:42;97773.00;;;18.70
20058;BMP180;10189;49.546;7.906;2023-05-10T11:29:08;97784.00;;;18.30
20058;BMP180;10189;49.546;7.906;2023-05-10T11:31:35;97773.00;;;18.50
20058;BMP180;10189;49.546;7.906;2023-05-10T11:34:07;97779.00;;;18.20
20058;BMP180;10189;49.546;7.906;2023-05-10T11:36:35;97785.00;;;18.40
20058;BMP180;10189;49.546;7.906;2023-05-10T11:39:03;97789.00;;;18.00
20058;BMP180;10189;49.546;7.906;2023-05-10T11:41:30;97789.00;;;18.20
20058;BMP180;10189;49.546;7.906;2023-05-10T11:43:58;97791.00;;;18.50
20058;BMP180;10189;49.546;7.906;2023-05-10T11:46:26;97788.00;;;18.40
20058;BMP180;10189;49.546;7.906;2023-05-10T11:48:57;97785.00;;;18.40
20058;BMP180;10189;49.546;7.906;2023-05-10T11:51:24;97788.00;;;18.70
20058;BMP180;10189;49.546;7.906;2023-05-10T11:53:54;97789.00;;;18.90
20058;BMP180;10189;49.546;7.906;2023-05-10T11:56:21;97784.00;;;19.20
20058;BMP180;10189;49.546;7.906;2023-05-10T11:58:56;97781.00;;;19.40
20058;BMP180;10189;49.546;7.906;2023-05-10T12:01:26;97788.00;;;19.20
20058;BMP180;10189;49.546;7.906;2023-05-10T12:03:55;97783.00;;;18.70
20058;BMP180;10189;49.546;7.906;2023-05-10T12:06:29;97781.00;;;18.90
20058;BMP180;10189;49.546;7.906;2023-05-10T12:08:57;97771.00;;;19.40
20058;BMP180;10189;49.546;7.906;2023-05-10T12:11:28;97772.00;;;18.90
20058;BMP180;10189;49.546;7.906;2023-05-10T12:13:55;97774.00;;;19.00
20058;BMP180;10189;49.546;7.906;2023-05-10T12:16:28;97770.00;;;19.30
20058;BMP180;10189;49.546;7.906;2023-05-10T12:18:59;97762.00;;;19.30
20058;BMP180;10189;49.546;7.906;2023-05-10T12:21:29;97771.00;;;19.10
20058;BMP180;10189;49.546;7.906;2023-05-10T12:24:01;97767.00;;;19.50
20058;BMP180;10189;49.546;7.906;2023-05-10T12:26:29;97765.00;;;20.20
20058;BMP180;10189;49.546;7.906;2023-05-10T12:29:11;97766.00;;;20.10
20058;BMP180;10189;49.546;7.906;2023-05-10T12:31:54;97769.00;;;20.00
20058;BMP180;10189;49.546;7.906;2023-05-10T12:34:34;97765.00;;;20.20
20058;BMP180;10189;49.546;7.906;2023-05-10T12:37:03;97756.00;;;20.40
20058;BMP180;10189;49.546;7.906;2023-05-10T12:39:43;97754.00;;;20.50
20058;BMP180;10189;49.546;7.906;2023-05-10T12:42:09;97760.00;;;20.80
20058;BMP180;10189;49.546;7.906;2023-05-10T12:44:35;97758.00;;;20.90
20058;BMP180;10189;49.546;7.906;2023-05-10T12:47:01;97746.00;;;21.10
20058;BMP180;10189;49.546;7.906;2023-05-10T12:49:27;97748.00;;;21.70
20058;BMP180;10189;49.546;7.906;2023-05-10T12:51:53;97753.00;;;21.40
20058;BMP180;10189;49.546;7.906;2023-05-10T12:54:19;97759.00;;;20.70
20058;BMP180;10189;49.546;7.906;2023-05-10T12:56:45;97757.00;;;20.80
20058;BMP180;10189;49.546;7.906;2023-05-10T12:59:11;97765.00;;;20.20
20058;BMP180;10189;49.546;7.906;2023-05-10T13:01:40;97769.00;;;20.50
20058;BMP180;10189;49.546;7.906;2023-05-10T13:04:07;97765.00;;;20.90
20058;BMP180;10189;49.546;7.906;2023-05-10T13:06:33;97775.00;;;20.80
20058;BMP180;10189;49.546;7.906;2023-05-10T13:08:58;97774.00;;;21.10
20058;BMP180;10189;49.546;7.906;2023-05-10T13:11:25;97772.00;;;21.10
20058;BMP180;10189;49.546;7.906;2023-05-10T13:13:51;97777.00;;;21.30
20058;BMP180;10189;49.546;7.906;2023-05-10T13:16:17;97778.00;;;20.80
20058;BMP180;10189;49.546;7.906;2023-05-10T13:18:43;97778.00;;;20.80
20058;BMP180;10189;49.546;7.906;2023-05-10T13:21:08;97781.00;;;20.70
20058;BMP180;10189;49.546;7.906;2023-05-10T13:23:35;97780.00;;;21.20
20058;BMP180;10189;49.546;7.906;2023-05-10T13:26:00;97786.00;;;21.10
20058;BMP180;10189;49.546;7.906;2023-05-10T13:28:26;97780.00;;;20.90
20058;BMP180;10189;49.546;7.906;2023-05-10T13:30:52;97782.00;;;21.20
20058;BMP180;10189;49.546;7.906;2023-05-10T13:33:18;97781.00;;;21.30
20058;BMP180;10189;49.546;7.906;2023-05-10T13:35:44;97781.00;;;21.10
20058;BMP180;10189;49.546;7.906;2023-05-10T13:38:12;97776.00;;;21.50
20058;BMP180;10189;49.546;7.906;2023-05-10T13:40:38;97786.00;;;21.50
20058;BMP180;10189;49.546;7.906;2023-05-10T13:43:04;97770.00;;;21.30
20058;BMP180;10189;49.546;7.906;2023-05-10T13:45:29;97795.00;;;20.90
20058;BMP180;10189;49.546;7.906;2023-05-10T13:47:55;97784.00;;;20.40
20058;BMP180;10189;49.546;7.906;2023-05-10T13:50:21;97776.00;;;20.00
20058;BMP180;10189;49.546;7.906;2023-05-10T13:52:47;97784.00;;;19.90
20058;BMP180;10189;49.546;7.906;2023-05-10T13:55:13;97779.00;;;20.20
20058;BMP180;10189;49.546;7.906;2023-05-10T13:57:39;97777.00;;;20.50
20058;BMP180;10189;49.546;7.906;2023-05-10T14:00:06;97780.00;;;21.00
20058;BMP180;10189;49.546;7.906;2023-05-10T14:02:33;97777.00;;;21.30
20058;BMP180;10189;49.546;7.906;2023-05-10T14:05:00;97759.00;;;21.00
20058;BMP180;10189;49.546;7.906;2023-05-10T14:07:25;97770.00;;;20.40
20058;BMP180;10189;49.546;7.906;2023-05-10T14:09:51;97769.00;;;20.60
20058;BMP180;10189;49.546;7.906;2023-05-10T14:12:17;97767.00;;;21.40
20058;BMP180;10189;49.546;7.906;2023-05-10T14:14:43;97754.00;;;21.30
20058;BMP180;10189;49.546;7.906;2023-05-10T14:17:09;97758.00;;;21.10
20058;BMP180;10189;49.546;7.906;2023-05-10T14:19:35;97752.00;;;21.00
20058;BMP180;10189;49.546;7.906;2023-05-10T14:22:01;97750.00;;;20.80
20058;BMP180;10189;49.546;7.906;2023-05-10T14:24:27;97744.00;;;20.90
20058;BMP180;10189;49.546;7.906;2023-05-10T14:26:53;97743.00;;;20.80
20058;BMP180;10189;49.546;7.906;2023-05-10T14:29:20;97745.00;;;20.20
20058;BMP180;10189;49.546;7.906;2023-05-10T14:31:46;97740.00;;;20.50
20058;BMP180;10189;49.546;7.906;2023-05-10T14:34:12;97746.00;;;20.10
20058;BMP180;10189;49.546;7.906;2023-05-10T14:36:38;97750.00;;;20.00
20058;BMP180;10189;49.546;7.906;2023-05-10T14:39:05;97742.00;;;20.30
20058;BMP180;10189;49.546;7.906;2023-05-10T14:41:32;97744.00;;;20.50
20058;BMP180;10189;49.546;7.906;2023-05-10T14:43:58;97750.00;;;20.10
20058;BMP180;10189;49.546;7.906;2023-05-10T14:46:24;97744.00;;;19.70
20058;BMP180;10189;49.546;7.906;2023-05-10T14:48:50;97750.00;;;20.10